createdAt,value
2023-05-18T00:01:49.032Z,79.46
2023-05-18T00:04:52.080Z,81.14
2023-05-18T00:07:54.666Z,81.33
2023-05-18T00:10:58.025Z,83.74
2023-05-18T00:14:00.568Z,82.75
2023-05-18T00:17:03.434Z,82.68
2023-05-18T00:20:06.844Z,83.26
2023-05-18T00:23:10.928Z,82.92
2023-05-18T00:26:13.412Z,84.64
2023-05-18T00:29:17.696Z,85.89
2023-05-18T00:32:22.419Z,88.64
2023-05-18T00:35:25.326Z,87.94
2023-05-18T00:38:27.726Z,86.98
2023-05-18T00:41:30.810Z,86.55
2023-05-18T00:44:35.499Z,87.50
2023-05-18T00:47:40.257Z,87.48
2023-05-18T00:50:42.953Z,88.97
2023-05-18T00:53:46.043Z,88.90
2023-05-18T00:56:48.923Z,86.10
2023-05-18T00:59:51.912Z,86.25
2023-05-18T01:02:54.845Z,86.45
2023-05-18T01:05:58.360Z,85.76
2023-05-18T01:09:02.843Z,86.68
2023-05-18T01:12:37.039Z,88.12
2023-05-18T01:15:42.643Z,87.45
2023-05-18T01:19:01.392Z,85.80
2023-05-18T01:22:14.369Z,87.86
2023-05-18T01:25:36.949Z,86.32
2023-05-18T01:28:40.298Z,86.83
2023-05-18T01:31:43.266Z,90.00
2023-05-18T01:34:45.995Z,91.41
2023-05-18T01:37:48.972Z,91.63
2023-05-18T01:41:14.714Z,91.50
2023-05-18T01:44:33.232Z,91.70
2023-05-18T01:47:38.565Z,91.74
2023-05-18T01:50:43.794Z,91.82
2023-05-18T01:53:53.736Z,90.40
2023-05-18T01:56:58.013Z,92.00
2023-05-18T02:00:00.615Z,91.46
2023-05-18T02:03:03.855Z,92.78
2023-05-18T02:06:06.382Z,92.10
2023-05-18T02:09:12.455Z,92.12
2023-05-18T02:12:14.950Z,92.95
2023-05-18T02:15:17.987Z,92.43
2023-05-18T02:18:22.296Z,91.59
2023-05-18T02:21:26.383Z,92.98
2023-05-18T02:24:29.138Z,93.46
2023-05-18T02:27:33.633Z,93.15
2023-05-18T02:30:36.056Z,92.52
2023-05-18T02:33:42.385Z,94.01
2023-05-18T02:36:46.452Z,94.49
2023-05-18T02:39:49.284Z,93.21
2023-05-18T02:42:52.891Z,93.07
2023-05-18T02:45:55.837Z,93.67
2023-05-18T02:48:58.629Z,94.01
2023-05-18T02:52:02.872Z,94.09
2023-05-18T02:55:06.559Z,94.31
2023-05-18T02:58:31.231Z,93.57
2023-05-18T03:01:43.175Z,94.52
2023-05-18T03:04:49.388Z,95.13
2023-05-18T03:07:54.614Z,94.52
2023-05-18T03:10:59.135Z,95.49
2023-05-18T03:14:01.685Z,95.83
2023-05-18T03:17:06.332Z,95.38
2023-05-18T03:20:14.821Z,96.91
2023-05-18T03:23:19.531Z,97.13
2023-05-18T03:26:26.225Z,96.53
2023-05-18T03:29:31.437Z,96.62
2023-05-18T03:32:37.504Z,97.65
2023-05-18T03:35:41.140Z,98.04
2023-05-18T03:38:46.518Z,98.60
2023-05-18T03:41:50.545Z,98.39
2023-05-18T03:44:53.078Z,98.88
2023-05-18T03:47:55.857Z,99.74
2023-05-18T03:50:59.989Z,100.00
2023-05-18T03:54:06.160Z,99.66
2023-05-18T03:57:08.546Z,100.00
2023-05-18T04:00:13.825Z,100.00
2023-05-18T04:03:25.193Z,100.00
2023-05-18T04:06:27.999Z,100.00
2023-05-18T04:09:30.550Z,100.00
2023-05-18T04:12:33.472Z,100.00
2023-05-18T04:15:36.720Z,99.62
2023-05-18T04:18:43.277Z,99.54
2023-05-18T04:21:47.631Z,98.77
2023-05-18T04:24:50.795Z,98.10
2023-05-18T04:27:53.236Z,99.18
2023-05-18T04:30:57.249Z,99.52
2023-05-18T04:34:00.754Z,99.76
2023-05-18T04:37:06.174Z,98.61
2023-05-18T04:40:17.708Z,99.46
2023-05-18T04:43:22.990Z,100.00
2023-05-18T04:46:25.658Z,99.43
2023-05-18T04:49:28.795Z,98.85
2023-05-18T04:52:32.309Z,99.01
2023-05-18T04:55:35.806Z,97.36
2023-05-18T04:58:41.882Z,98.82
2023-05-18T05:01:45.002Z,97.62
2023-05-18T05:04:47.626Z,95.85
2023-05-18T05:07:51.852Z,96.96
2023-05-18T05:10:54.392Z,94.15
2023-05-18T05:13:57.242Z,94.97
2023-05-18T05:16:59.610Z,96.13
2023-05-18T05:20:03.795Z,95.07
2023-05-18T05:23:07.213Z,94.43
2023-05-18T05:26:13.127Z,95.01
2023-05-18T05:29:15.527Z,93.43
2023-05-18T05:32:19.612Z,94.42
2023-05-18T05:35:29.928Z,93.25
2023-05-18T05:38:34.047Z,92.34
2023-05-18T05:41:36.877Z,92.46
2023-05-18T05:44:41.266Z,91.45
2023-05-18T05:47:44.101Z,91.59
2023-05-18T05:50:47.736Z,90.94
2023-05-18T05:53:53.249Z,88.31
2023-05-18T05:56:58.429Z,88.74
2023-05-18T06:00:01.810Z,86.33
2023-05-18T06:03:08.941Z,83.12
2023-05-18T06:06:15.570Z,85.39
2023-05-18T06:09:18.706Z,83.50
2023-05-18T06:12:21.940Z,82.19
2023-05-18T06:15:25.064Z,83.06
2023-05-18T06:18:27.690Z,83.61
2023-05-18T06:21:35.908Z,77.90
2023-05-18T06:24:39.429Z,77.04
2023-05-18T06:28:00.710Z,74.13
2023-05-18T06:31:14.608Z,74.05
2023-05-18T06:34:46.060Z,73.02
2023-05-18T06:37:48.660Z,70.84
2023-05-18T06:40:51.544Z,71.86
2023-05-18T06:43:54.247Z,70.49
2023-05-18T06:47:06.508Z,67.85
2023-05-18T06:50:09.922Z,64.38
2023-05-18T06:53:13.877Z,68.24
2023-05-18T06:56:16.937Z,68.86
2023-05-18T06:59:22.591Z,68.51
2023-05-18T07:02:25.067Z,69.71
2023-05-18T07:05:28.587Z,70.22
2023-05-18T07:08:32.269Z,69.10
2023-05-18T07:11:35.149Z,67.01
2023-05-18T07:14:37.728Z,68.01
2023-05-18T07:17:40.523Z,66.55
2023-05-18T07:20:43.034Z,66.44
2023-05-18T07:23:45.793Z,67.17
2023-05-18T07:26:48.280Z,64.95
2023-05-18T07:29:52.123Z,66.25
2023-05-18T07:32:56.753Z,66.23
2023-05-18T07:36:01.899Z,65.63
2023-05-18T07:39:05.013Z,66.35
2023-05-18T07:42:08.975Z,67.50
2023-05-18T07:45:11.861Z,68.16
2023-05-18T07:48:14.784Z,70.19
2023-05-18T07:51:17.433Z,66.93
2023-05-18T07:54:20.685Z,67.94
2023-05-18T07:57:23.591Z,64.82
2023-05-18T08:00:26.405Z,68.03
2023-05-18T08:03:28.884Z,71.18
2023-05-18T08:06:32.206Z,66.79
2023-05-18T08:09:34.913Z,67.57
2023-05-18T08:12:37.727Z,64.53
2023-05-18T08:15:43.476Z,67.04
2023-05-18T08:18:46.311Z,68.96
2023-05-18T08:21:48.927Z,68.71
2023-05-18T08:24:52.281Z,67.53
2023-05-18T08:27:54.744Z,60.92
2023-05-18T08:30:57.825Z,64.53
2023-05-18T08:34:00.705Z,63.15
2023-05-18T08:37:03.674Z,62.33
2023-05-18T08:40:11.738Z,60.77
2023-05-18T08:43:33.513Z,59.62
2023-05-18T08:46:40.883Z,61.93
2023-05-18T08:49:43.870Z,59.41
2023-05-18T08:52:54.532Z,60.61
2023-05-18T08:55:58.119Z,61.08
2023-05-18T08:59:05.252Z,57.38
2023-05-18T09:02:08.777Z,57.73
2023-05-18T09:05:13.558Z,56.00
2023-05-18T09:08:16.685Z,57.86
2023-05-18T09:11:19.568Z,54.60
2023-05-18T09:14:26.120Z,58.44
2023-05-18T09:17:28.796Z,56.01
2023-05-18T09:20:31.789Z,56.97
2023-05-18T09:23:34.614Z,58.02
2023-05-18T09:26:38.561Z,55.26
2023-05-18T09:29:57.850Z,55.92
2023-05-18T09:33:00.820Z,58.59
2023-05-18T09:36:07.869Z,53.51
2023-05-18T09:39:11.925Z,57.27
2023-05-18T09:42:14.383Z,53.91
2023-05-18T09:45:24.041Z,59.04
2023-05-18T09:48:26.688Z,55.60
2023-05-18T09:51:30.041Z,55.59
2023-05-18T09:54:32.493Z,56.25
2023-05-18T09:57:43.836Z,54.33
2023-05-18T10:00:54.289Z,56.73
2023-05-18T10:04:04.194Z,56.26
2023-05-18T10:07:17.526Z,53.79
2023-05-18T10:10:26.173Z,56.13
2023-05-18T10:13:31.918Z,55.49
2023-05-18T10:16:34.900Z,53.10
2023-05-18T10:19:38.813Z,57.22
2023-05-18T10:22:42.482Z,54.66
2023-05-18T10:25:47.469Z,52.91
2023-05-18T10:28:50.821Z,55.01
2023-05-18T10:31:54.579Z,55.31
2023-05-18T10:34:57.579Z,55.47
2023-05-18T10:38:02.506Z,53.93
2023-05-18T10:41:06.574Z,56.99
2023-05-18T10:44:09.247Z,55.55
2023-05-18T10:47:12.558Z,54.28
2023-05-18T10:50:16.832Z,53.77
2023-05-18T10:53:21.553Z,55.71
2023-05-18T10:56:24.274Z,52.89
2023-05-18T10:59:27.989Z,53.70
2023-05-18T11:02:32.199Z,53.74
2023-05-18T11:05:35.176Z,54.90
2023-05-18T11:08:50.096Z,55.78
2023-05-18T11:12:00.362Z,56.11
2023-05-18T11:15:02.786Z,55.43
2023-05-18T11:18:15.698Z,55.38
2023-05-18T11:21:36.598Z,55.67
2023-05-18T11:24:41.977Z,59.24
2023-05-18T11:27:45.738Z,58.02
2023-05-18T11:30:50.380Z,52.89
2023-05-18T11:33:53.030Z,54.41
2023-05-18T11:36:57.170Z,55.24
2023-05-18T11:40:01.664Z,56.35
2023-05-18T11:43:07.260Z,57.47
2023-05-18T11:46:18.569Z,55.69
2023-05-18T11:49:24.018Z,54.78
2023-05-18T11:52:26.720Z,54.90
2023-05-18T11:55:39.210Z,56.62
2023-05-18T11:58:41.880Z,52.12
2023-05-18T12:01:44.782Z,54.00
2023-05-18T12:04:50.810Z,54.05
2023-05-18T12:07:56.789Z,51.91
2023-05-18T12:10:59.692Z,57.51
2023-05-18T12:14:02.946Z,55.87
2023-05-18T12:17:06.040Z,53.58
2023-05-18T12:20:12.842Z,54.06
2023-05-18T12:23:15.355Z,56.55
2023-05-18T12:26:20.741Z,54.78
2023-05-18T12:29:23.273Z,55.88
2023-05-18T12:32:26.309Z,53.38
2023-05-18T12:35:30.058Z,56.50
2023-05-18T12:38:34.679Z,58.45
2023-05-18T12:41:37.179Z,55.96
2023-05-18T12:44:40.104Z,57.68
2023-05-18T12:47:43.385Z,55.54
2023-05-18T12:50:47.673Z,56.56
2023-05-18T12:53:50.968Z,55.68
2023-05-18T12:57:04.292Z,56.58
2023-05-18T13:00:10.850Z,54.37
2023-05-18T13:03:22.709Z,55.18
2023-05-18T13:06:26.784Z,57.27
2023-05-18T13:09:29.670Z,56.33
2023-05-18T13:12:50.608Z,56.62
2023-05-18T13:15:53.807Z,53.91
2023-05-18T13:18:57.817Z,53.26
2023-05-18T13:22:00.990Z,55.59
2023-05-18T13:25:03.510Z,52.72
2023-05-18T13:28:07.692Z,54.21
2023-05-18T13:31:12.810Z,55.91
2023-05-18T13:34:15.664Z,52.02
2023-05-18T13:37:18.325Z,54.50
2023-05-18T13:40:22.144Z,53.01
2023-05-18T13:43:24.635Z,53.59
2023-05-18T13:46:27.491Z,53.09
2023-05-18T13:49:29.978Z,55.12
2023-05-18T13:52:32.747Z,54.10
2023-05-18T13:55:35.968Z,54.58
2023-05-18T13:58:38.695Z,56.15
2023-05-18T14:01:42.693Z,54.86
2023-05-18T14:04:45.655Z,55.16
2023-05-18T14:07:48.408Z,54.33
2023-05-18T14:10:51.274Z,55.93
2023-05-18T14:13:53.843Z,54.77
2023-05-18T14:16:56.666Z,54.68
2023-05-18T14:19:59.582Z,55.31
2023-05-18T14:23:04.447Z,56.07
2023-05-18T14:26:07.517Z,56.72
2023-05-18T14:29:10.518Z,56.16
2023-05-18T14:32:13.112Z,55.56
2023-05-18T14:35:16.003Z,55.84
2023-05-18T14:38:18.449Z,56.75
2023-05-18T14:41:22.312Z,55.30
2023-05-18T14:44:24.698Z,55.03
2023-05-18T14:47:27.512Z,56.10
2023-05-18T14:50:30.314Z,56.99
2023-05-18T14:53:33.302Z,56.61
2023-05-18T14:56:35.891Z,55.49
2023-05-18T14:59:38.745Z,55.60
2023-05-18T15:02:42.164Z,54.99
2023-05-18T15:05:46.373Z,57.09
2023-05-18T15:08:49.023Z,56.08
2023-05-18T15:11:52.524Z,57.02
2023-05-18T15:14:55.031Z,55.92
2023-05-18T15:17:57.830Z,56.79
2023-05-18T15:21:00.344Z,56.47
2023-05-18T15:24:03.225Z,56.60
2023-05-18T15:27:06.082Z,56.57
2023-05-18T15:30:11.865Z,58.87
2023-05-18T15:33:14.413Z,56.63
2023-05-18T15:36:17.321Z,58.83
2023-05-18T15:39:20.119Z,58.07
2023-05-18T15:42:23.058Z,56.97
2023-05-18T15:45:25.621Z,57.97
2023-05-18T15:48:29.961Z,58.34
2023-05-18T15:51:33.539Z,57.24
2023-05-18T15:54:36.552Z,58.06
2023-05-18T15:57:39.057Z,59.84
2023-05-18T16:00:42.189Z,58.00
2023-05-18T16:03:45.188Z,60.78
2023-05-18T16:06:50.840Z,61.76
2023-05-18T16:09:53.332Z,62.09
2023-05-18T16:12:56.214Z,61.62
2023-05-18T16:15:58.866Z,61.94
2023-05-18T16:19:02.572Z,61.44
2023-05-18T16:22:05.307Z,62.91
2023-05-18T16:25:08.507Z,62.70
2023-05-18T16:28:11.117Z,63.70
2023-05-18T16:31:14.171Z,64.22
2023-05-18T16:34:16.814Z,64.63
2023-05-18T16:37:19.673Z,64.80
2023-05-18T16:40:22.219Z,65.99
2023-05-18T16:43:25.049Z,66.92
2023-05-18T16:46:28.207Z,66.68
2023-05-18T16:49:31.180Z,66.09
2023-05-18T16:52:33.628Z,66.65
2023-05-18T16:55:36.699Z,67.33
2023-05-18T16:58:39.286Z,67.59
2023-05-18T17:01:42.315Z,67.83
2023-05-18T17:04:49.872Z,66.54
2023-05-18T17:07:53.555Z,67.36
2023-05-18T17:10:56.361Z,67.65
2023-05-18T17:14:00.204Z,68.55
2023-05-18T17:17:03.160Z,70.28
2023-05-18T17:20:09.214Z,71.70
2023-05-18T17:23:17.529Z,71.34
2023-05-18T17:26:20.507Z,71.10
2023-05-18T17:29:22.996Z,71.68
2023-05-18T17:32:26.279Z,72.01
2023-05-18T17:35:29.125Z,72.61
2023-05-18T17:38:32.279Z,72.88
2023-05-18T17:41:34.860Z,74.13
2023-05-18T17:44:37.651Z,73.44
2023-05-18T17:47:42.056Z,73.16
2023-05-18T17:50:45.697Z,70.50
2023-05-18T17:53:48.410Z,71.67
2023-05-18T17:56:51.404Z,73.32
2023-05-18T17:59:53.933Z,74.24
2023-05-18T18:02:56.815Z,73.89
2023-05-18T18:05:59.455Z,73.47
2023-05-18T18:09:03.417Z,74.67
2023-05-18T18:12:06.122Z,74.63
2023-05-18T18:15:09.605Z,72.76
2023-05-18T18:18:12.269Z,70.62
2023-05-18T18:21:15.283Z,72.84
2023-05-18T18:24:18.359Z,71.82
2023-05-18T18:27:21.400Z,70.80
2023-05-18T18:30:24.796Z,73.58
2023-05-18T18:33:29.015Z,74.77
2023-05-18T18:36:31.918Z,78.04
2023-05-18T18:39:35.450Z,77.92
2023-05-18T18:42:38.124Z,77.76
2023-05-18T18:45:41.158Z,77.91
2023-05-18T18:48:43.763Z,78.83
2023-05-18T18:51:48.369Z,77.94
2023-05-18T18:54:52.225Z,78.84
2023-05-18T18:57:55.850Z,78.81
2023-05-18T19:00:58.846Z,78.53
2023-05-18T19:04:01.891Z,78.75
2023-05-18T19:07:05.123Z,79.10
2023-05-18T19:10:10.759Z,81.22
2023-05-18T19:13:13.739Z,80.44
2023-05-18T19:16:18.094Z,80.56
2023-05-18T19:19:21.425Z,79.39
2023-05-18T19:22:24.809Z,79.82
2023-05-18T19:25:30.500Z,78.59
2023-05-18T19:28:34.070Z,79.83
2023-05-18T19:31:38.089Z,80.29
2023-05-18T19:34:41.197Z,80.04
2023-05-18T19:37:44.292Z,81.04
2023-05-18T19:40:48.609Z,80.18
2023-05-18T19:43:51.526Z,79.63
2023-05-18T19:46:54.517Z,78.80
2023-05-18T19:49:58.246Z,80.09
2023-05-18T19:53:01.333Z,81.35
2023-05-18T19:56:04.007Z,80.79
2023-05-18T19:59:07.039Z,81.86
2023-05-18T20:02:09.581Z,82.15
2023-05-18T20:05:12.982Z,82.65
2023-05-18T20:08:15.834Z,83.57
2023-05-18T20:11:19.026Z,84.17
2023-05-18T20:14:21.774Z,84.91
2023-05-18T20:17:25.916Z,85.11
2023-05-18T20:20:31.061Z,85.62
2023-05-18T20:23:34.194Z,86.75
2023-05-18T20:26:36.904Z,85.58
2023-05-18T20:29:41.081Z,87.35
2023-05-18T20:32:44.015Z,86.50
2023-05-18T20:35:46.981Z,87.66
2023-05-18T20:38:49.865Z,86.62
2023-05-18T20:41:53.929Z,86.86
2023-05-18T20:44:57.842Z,86.53
2023-05-18T20:48:00.921Z,85.86
2023-05-18T20:51:03.499Z,86.93
2023-05-18T20:54:07.095Z,88.58
2023-05-18T20:57:09.673Z,88.07
2023-05-18T21:00:13.588Z,86.78
2023-05-18T21:03:18.609Z,87.13
2023-05-18T21:06:21.567Z,85.34
2023-05-18T21:09:24.235Z,85.10
2023-05-18T21:12:27.115Z,87.02
2023-05-18T21:15:29.988Z,86.79
2023-05-18T21:18:34.521Z,89.35
2023-05-18T21:21:37.152Z,88.48
2023-05-18T21:24:40.077Z,87.70
2023-05-18T21:27:42.587Z,88.16
2023-05-18T21:30:50.457Z,87.36
2023-05-18T21:33:52.924Z,87.76
2023-05-18T21:36:57.162Z,87.15
2023-05-18T21:39:59.982Z,89.44
2023-05-18T21:43:06.022Z,88.36
2023-05-18T21:46:09.527Z,89.42
2023-05-18T21:49:12.926Z,90.47
2023-05-18T21:52:15.608Z,89.97
2023-05-18T21:55:18.547Z,91.58
2023-05-18T21:58:21.537Z,90.57
2023-05-18T22:01:24.418Z,89.92
2023-05-18T22:04:27.028Z,90.13
2023-05-18T22:07:29.965Z,90.09
2023-05-18T22:10:33.100Z,89.66
2023-05-18T22:13:36.081Z,89.30
2023-05-18T22:16:38.709Z,90.67
2023-05-18T22:19:42.461Z,89.72
2023-05-18T22:22:45.034Z,90.17
2023-05-18T22:25:48.257Z,90.15
2023-05-18T22:28:50.898Z,90.97
2023-05-18T22:31:53.886Z,92.62
2023-05-18T22:34:56.355Z,92.92
2023-05-18T22:37:59.145Z,92.84
2023-05-18T22:41:02.809Z,93.16
2023-05-18T22:44:05.708Z,92.28
2023-05-18T22:47:08.190Z,92.18
2023-05-18T22:50:11.319Z,91.38
2023-05-18T22:53:14.111Z,91.11
2023-05-18T22:56:19.316Z,91.99
2023-05-18T22:59:21.785Z,91.85
2023-05-18T23:02:24.510Z,91.98
2023-05-18T23:05:27.958Z,92.78
2023-05-18T23:08:31.003Z,93.06
2023-05-18T23:11:35.203Z,94.46
2023-05-18T23:14:38.216Z,94.55
2023-05-18T23:17:40.690Z,94.61
2023-05-18T23:20:43.408Z,94.91
2023-05-18T23:23:46.963Z,95.87
2023-05-18T23:26:49.928Z,95.32
2023-05-18T23:29:53.181Z,96.52
2023-05-18T23:32:56.933Z,95.99
2023-05-18T23:36:02.772Z,96.38
2023-05-18T23:39:06.071Z,96.39
2023-05-18T23:42:08.946Z,97.06
2023-05-18T23:45:12.439Z,97.66
2023-05-18T23:48:15.270Z,98.04
2023-05-18T23:51:21.917Z,97.73
2023-05-18T23:54:24.557Z,98.03
2023-05-18T23:57:27.619Z,98.10
